sensor_id;sensor_type;location;lat;lon;timestamp;P1;durP1;ratioP1;P2;durP2;ratioP2
17259;SDS011;8746;49.230;9.220;2022-07-30T00:00:00;6.40;;;3.10;;
17259;SDS011;8746;49.230;9.220;2022-07-30T00:02:25;3.40;;;3.10;;
17259;SDS011;8746;49.230;9.220;2022-07-30T00:04:51;3.30;;;3.00;;
17259;SDS011;8746;49.230;9.220;2022-07-30T00:07:16;3.50;;;3.07;;
17259;SDS011;8746;49.230;9.220;2022-07-30T00:09:41;3.63;;;3.33;;
17259;SDS011;8746;49.230;9.220;2022-07-30T00:12:07;3.27;;;2.97;;
17259;SDS011;8746;49.230;9.220;2022-07-30T00:14:33;3.23;;;3.03;;
17259;SDS011;8746;49.230;9.220;2022-07-30T00:16:59;3.33;;;3.10;;
17259;SDS011;8746;49.230;9.220;2022-07-30T00:19:24;3.43;;;3.13;;
17259;SDS011;8746;49.230;9.220;2022-07-30T00:21:50;3.40;;;3.00;;
17259;SDS011;8746;49.230;9.220;2022-07-30T00:24:15;3.97;;;3.20;;
17259;SDS011;8746;49.230;9.220;2022-07-30T00:26:41;3.30;;;3.00;;
17259;SDS011;8746;49.230;9.220;2022-07-30T00:29:06;3.77;;;3.00;;
17259;SDS011;8746;49.230;9.220;2022-07-30T00:31:32;3.40;;;3.20;;
17259;SDS011;8746;49.230;9.220;2022-07-30T00:33:58;3.53;;;3.30;;
17259;SDS011;8746;49.230;9.220;2022-07-30T00:36:23;3.47;;;3.17;;
17259;SDS011;8746;49.230;9.220;2022-07-30T00:38:49;3.87;;;3.23;;
17259;SDS011;8746;49.230;9.220;2022-07-30T00:41:14;3.63;;;3.30;;
17259;SDS011;8746;49.230;9.220;2022-07-30T00:43:39;3.47;;;3.17;;
17259;SDS011;8746;49.230;9.220;2022-07-30T00:46:05;5.67;;;3.70;;
17259;SDS011;8746;49.230;9.220;2022-07-30T00:48:30;3.80;;;3.30;;
17259;SDS011;8746;49.230;9.220;2022-07-30T00:50:55;3.53;;;3.23;;
17259;SDS011;8746;49.230;9.220;2022-07-30T00:53:21;3.40;;;3.20;;
17259;SDS011;8746;49.230;9.220;2022-07-30T00:55:46;5.30;;;3.50;;
17259;SDS011;8746;49.230;9.220;2022-07-30T00:58:12;3.20;;;3.00;;
17259;SDS011;8746;49.230;9.220;2022-07-30T01:00:37;6.63;;;3.10;;
17259;SDS011;8746;49.230;9.220;2022-07-30T01:03:03;3.70;;;3.40;;
17259;SDS011;8746;49.230;9.220;2022-07-30T01:05:29;4.27;;;3.80;;
17259;SDS011;8746;49.230;9.220;2022-07-30T01:07:55;3.70;;;3.40;;
17259;SDS011;8746;49.230;9.220;2022-07-30T01:10:20;3.63;;;3.43;;
17259;SDS011;8746;49.230;9.220;2022-07-30T01:12:45;3.60;;;3.40;;
17259;SDS011;8746;49.230;9.220;2022-07-30T01:15:11;3.53;;;3.13;;
17259;SDS011;8746;49.230;9.220;2022-07-30T01:17:37;7.50;;;3.73;;
17259;SDS011;8746;49.230;9.220;2022-07-30T01:20:25;3.50;;;3.20;;
17259;SDS011;8746;49.230;9.220;2022-07-30T01:27:59;4.23;;;3.60;;
17259;SDS011;8746;49.230;9.220;2022-07-30T01:30:30;3.67;;;3.37;;
17259;SDS011;8746;49.230;9.220;2022-07-30T01:32:58;4.90;;;3.80;;
17259;SDS011;8746;49.230;9.220;2022-07-30T01:35:25;3.90;;;3.60;;
17259;SDS011;8746;49.230;9.220;2022-07-30T01:37:53;3.93;;;3.53;;
17259;SDS011;8746;49.230;9.220;2022-07-30T01:40:20;4.77;;;3.60;;
17259;SDS011;8746;49.230;9.220;2022-07-30T01:42:50;4.00;;;3.70;;
17259;SDS011;8746;49.230;9.220;2022-07-30T01:45:19;6.27;;;3.90;;
17259;SDS011;8746;49.230;9.220;2022-07-30T01:47:47;4.30;;;3.90;;
17259;SDS011;8746;49.230;9.220;2022-07-30T01:50:14;3.73;;;3.43;;
17259;SDS011;8746;49.230;9.220;2022-07-30T01:52:43;4.77;;;3.87;;
17259;SDS011;8746;49.230;9.220;2022-07-30T01:55:11;4.50;;;4.10;;
17259;SDS011;8746;49.230;9.220;2022-07-30T01:57:41;4.30;;;3.90;;
17259;SDS011;8746;49.230;9.220;2022-07-30T02:00:09;4.30;;;3.90;;
17259;SDS011;8746;49.230;9.220;2022-07-30T02:02:36;4.03;;;3.80;;
17259;SDS011;8746;49.230;9.220;2022-07-30T02:05:03;3.70;;;3.50;;
17259;SDS011;8746;49.230;9.220;2022-07-30T02:07:34;4.00;;;3.70;;
17259;SDS011;8746;49.230;9.220;2022-07-30T02:10:04;4.07;;;3.77;;
17259;SDS011;8746;49.230;9.220;2022-07-30T02:12:37;4.20;;;3.43;;
17259;SDS011;8746;49.230;9.220;2022-07-30T02:17:42;4.13;;;3.80;;
17259;SDS011;8746;49.230;9.220;2022-07-30T02:20:11;3.70;;;3.50;;
17259;SDS011;8746;49.230;9.220;2022-07-30T02:22:39;3.90;;;3.60;;
17259;SDS011;8746;49.230;9.220;2022-07-30T02:25:08;3.80;;;3.50;;
17259;SDS011;8746;49.230;9.220;2022-07-30T02:27:34;4.03;;;3.73;;
17259;SDS011;8746;49.230;9.220;2022-07-30T02:30:04;3.93;;;3.63;;
17259;SDS011;8746;49.230;9.220;2022-07-30T02:32:32;3.80;;;3.60;;
17259;SDS011;8746;49.230;9.220;2022-07-30T02:35:03;4.80;;;3.87;;
17259;SDS011;8746;49.230;9.220;2022-07-30T02:37:36;4.60;;;3.93;;
17259;SDS011;8746;49.230;9.220;2022-07-30T02:40:03;4.43;;;4.13;;
17259;SDS011;8746;49.230;9.220;2022-07-30T02:42:30;4.00;;;3.70;;
17259;SDS011;8746;49.230;9.220;2022-07-30T02:44:55;5.27;;;3.80;;
17259;SDS011;8746;49.230;9.220;2022-07-30T02:47:22;4.30;;;4.00;;
17259;SDS011;8746;49.230;9.220;2022-07-30T02:49:51;4.40;;;4.00;;
17259;SDS011;8746;49.230;9.220;2022-07-30T02:52:18;4.40;;;4.00;;
17259;SDS011;8746;49.230;9.220;2022-07-30T02:54:44;5.00;;;3.90;;
17259;SDS011;8746;49.230;9.220;2022-07-30T02:57:14;4.30;;;4.00;;
17259;SDS011;8746;49.230;9.220;2022-07-30T02:59:41;4.53;;;3.97;;
17259;SDS011;8746;49.230;9.220;2022-07-30T03:02:08;4.93;;;4.53;;
17259;SDS011;8746;49.230;9.220;2022-07-30T03:04:36;5.40;;;4.30;;
17259;SDS011;8746;49.230;9.220;2022-07-30T03:07:05;4.90;;;4.40;;
17259;SDS011;8746;49.230;9.220;2022-07-30T03:09:31;4.70;;;4.30;;
17259;SDS011;8746;49.230;9.220;2022-07-30T03:11:57;4.80;;;4.37;;
17259;SDS011;8746;49.230;9.220;2022-07-30T03:14:23;4.33;;;3.93;;
17259;SDS011;8746;49.230;9.220;2022-07-30T03:16:55;4.73;;;4.20;;
17259;SDS011;8746;49.230;9.220;2022-07-30T03:19:22;6.03;;;4.30;;
17259;SDS011;8746;49.230;9.220;2022-07-30T03:21:52;5.03;;;4.57;;
17259;SDS011;8746;49.230;9.220;2022-07-30T03:24:20;5.57;;;5.07;;
17259;SDS011;8746;49.230;9.220;2022-07-30T03:26:48;4.87;;;4.57;;
17259;SDS011;8746;49.230;9.220;2022-07-30T03:29:16;4.90;;;4.43;;
17259;SDS011;8746;49.230;9.220;2022-07-30T03:31:43;5.17;;;4.70;;
17259;SDS011;8746;49.230;9.220;2022-07-30T03:34:09;6.43;;;4.53;;
17259;SDS011;8746;49.230;9.220;2022-07-30T03:36:35;4.63;;;4.33;;
17259;SDS011;8746;49.230;9.220;2022-07-30T03:39:02;5.33;;;4.90;;
17259;SDS011;8746;49.230;9.220;2022-07-30T03:41:29;5.30;;;4.90;;
17259;SDS011;8746;49.230;9.220;2022-07-30T03:43:55;5.60;;;4.67;;
17259;SDS011;8746;49.230;9.220;2022-07-30T03:46:21;4.90;;;4.50;;
17259;SDS011;8746;49.230;9.220;2022-07-30T03:48:48;5.60;;;5.20;;
17259;SDS011;8746;49.230;9.220;2022-07-30T03:51:16;7.50;;;4.80;;
17259;SDS011;8746;49.230;9.220;2022-07-30T03:53:41;4.60;;;4.30;;
17259;SDS011;8746;49.230;9.220;2022-07-30T03:56:08;5.23;;;4.83;;
17259;SDS011;8746;49.230;9.220;2022-07-30T03:58:35;5.40;;;5.00;;
17259;SDS011;8746;49.230;9.220;2022-07-30T04:01:02;5.30;;;4.60;;
17259;SDS011;8746;49.230;9.220;2022-07-30T04:03:28;5.53;;;5.00;;
17259;SDS011;8746;49.230;9.220;2022-07-30T04:05:55;5.90;;;5.40;;
17259;SDS011;8746;49.230;9.220;2022-07-30T04:08:21;6.33;;;5.37;;
17259;SDS011;8746;49.230;9.220;2022-07-30T04:10:47;5.63;;;5.20;;
17259;SDS011;8746;49.230;9.220;2022-07-30T04:13:13;5.93;;;5.43;;
17259;SDS011;8746;49.230;9.220;2022-07-30T04:18:30;5.37;;;4.97;;
17259;SDS011;8746;49.230;9.220;2022-07-30T04:21:01;5.40;;;5.00;;
17259;SDS011;8746;49.230;9.220;2022-07-30T04:23:31;5.80;;;5.30;;
17259;SDS011;8746;49.230;9.220;2022-07-30T04:25:56;6.07;;;5.47;;
17259;SDS011;8746;49.230;9.220;2022-07-30T04:28:23;5.07;;;4.70;;
17259;SDS011;8746;49.230;9.220;2022-07-30T04:30:51;5.33;;;4.83;;
17259;SDS011;8746;49.230;9.220;2022-07-30T04:33:17;5.70;;;5.20;;
17259;SDS011;8746;49.230;9.220;2022-07-30T04:35:43;6.17;;;5.07;;
17259;SDS011;8746;49.230;9.220;2022-07-30T04:38:08;5.20;;;4.80;;
17259;SDS011;8746;49.230;9.220;2022-07-30T04:40:34;5.90;;;4.90;;
17259;SDS011;8746;49.230;9.220;2022-07-30T04:43:00;5.67;;;5.17;;
17259;SDS011;8746;49.230;9.220;2022-07-30T04:45:25;6.73;;;5.37;;
17259;SDS011;8746;49.230;9.220;2022-07-30T04:47:51;6.10;;;5.47;;
17259;SDS011;8746;49.230;9.220;2022-07-30T04:50:20;5.63;;;5.13;;
17259;SDS011;8746;49.230;9.220;2022-07-30T04:52:48;6.43;;;5.43;;
17259;SDS011;8746;49.230;9.220;2022-07-30T04:55:15;5.43;;;4.93;;
17259;SDS011;8746;49.230;9.220;2022-07-30T04:57:42;5.60;;;5.10;;
17259;SDS011;8746;49.230;9.220;2022-07-30T05:00:11;5.77;;;4.83;;
17259;SDS011;8746;49.230;9.220;2022-07-30T05:02:37;5.77;;;5.20;;
17259;SDS011;8746;49.230;9.220;2022-07-30T05:05:04;6.40;;;5.20;;
17259;SDS011;8746;49.230;9.220;2022-07-30T05:07:32;5.60;;;5.10;;
17259;SDS011;8746;49.230;9.220;2022-07-30T05:09:59;6.00;;;5.40;;
17259;SDS011;8746;49.230;9.220;2022-07-30T05:12:31;6.07;;;5.53;;
17259;SDS011;8746;49.230;9.220;2022-07-30T05:14:57;6.73;;;5.30;;
17259;SDS011;8746;49.230;9.220;2022-07-30T05:17:22;6.37;;;5.53;;
17259;SDS011;8746;49.230;9.220;2022-07-30T05:19:48;6.80;;;5.60;;
17259;SDS011;8746;49.230;9.220;2022-07-30T05:22:13;5.90;;;5.40;;
17259;SDS011;8746;49.230;9.220;2022-07-30T05:24:38;6.13;;;5.63;;
17259;SDS011;8746;49.230;9.220;2022-07-30T05:27:04;5.97;;;5.37;;
17259;SDS011;8746;49.230;9.220;2022-07-30T05:29:29;6.40;;;5.80;;
17259;SDS011;8746;49.230;9.220;2022-07-30T05:31:54;6.70;;;6.00;;
17259;SDS011;8746;49.230;9.220;2022-07-30T05:34:20;6.43;;;5.93;;
17259;SDS011;8746;49.230;9.220;2022-07-30T05:36:45;7.80;;;6.33;;
17259;SDS011;8746;49.230;9.220;2022-07-30T05:39:11;7.47;;;6.70;;
17259;SDS011;8746;49.230;9.220;2022-07-30T05:41:37;9.50;;;6.10;;
17259;SDS011;8746;49.230;9.220;2022-07-30T05:44:02;7.63;;;6.23;;
17259;SDS011;8746;49.230;9.220;2022-07-30T05:46:28;11.10;;;7.20;;
17259;SDS011;8746;49.230;9.220;2022-07-30T05:48:55;9.17;;;6.53;;
17259;SDS011;8746;49.230;9.220;2022-07-30T05:51:20;11.83;;;6.70;;
17259;SDS011;8746;49.230;9.220;2022-07-30T05:53:46;7.30;;;6.70;;
17259;SDS011;8746;49.230;9.220;2022-07-30T05:56:12;8.27;;;7.47;;
17259;SDS011;8746;49.230;9.220;2022-07-30T05:58:37;7.27;;;6.57;;
17259;SDS011;8746;49.230;9.220;2022-07-30T06:01:02;7.90;;;7.13;;
17259;SDS011;8746;49.230;9.220;2022-07-30T06:03:28;8.00;;;7.30;;
17259;SDS011;8746;49.230;9.220;2022-07-30T06:05:53;9.43;;;7.00;;
17259;SDS011;8746;49.230;9.220;2022-07-30T06:08:19;8.03;;;7.33;;
17259;SDS011;8746;49.230;9.220;2022-07-30T06:10:44;8.00;;;7.30;;
17259;SDS011;8746;49.230;9.220;2022-07-30T06:13:09;9.07;;;7.17;;
17259;SDS011;8746;49.230;9.220;2022-07-30T06:15:35;8.10;;;7.30;;
17259;SDS011;8746;49.230;9.220;2022-07-30T06:18:00;7.60;;;6.90;;
17259;SDS011;8746;49.230;9.220;2022-07-30T06:20:25;6.53;;;5.93;;
17259;SDS011;8746;49.230;9.220;2022-07-30T06:22:51;7.27;;;6.43;;
17259;SDS011;8746;49.230;9.220;2022-07-30T06:25:16;6.40;;;5.40;;
17259;SDS011;8746;49.230;9.220;2022-07-30T06:27:41;6.07;;;5.57;;
17259;SDS011;8746;49.230;9.220;2022-07-30T06:30:07;7.30;;;5.70;;
17259;SDS011;8746;49.230;9.220;2022-07-30T06:32:34;8.57;;;5.80;;
17259;SDS011;8746;49.230;9.220;2022-07-30T06:35:00;6.00;;;5.50;;
17259;SDS011;8746;49.230;9.220;2022-07-30T06:37:25;6.67;;;6.07;;
17259;SDS011;8746;49.230;9.220;2022-07-30T06:39:51;5.97;;;5.47;;
17259;SDS011;8746;49.230;9.220;2022-07-30T06:42:16;7.53;;;5.37;;
17259;SDS011;8746;49.230;9.220;2022-07-30T06:44:42;8.87;;;6.03;;
17259;SDS011;8746;49.230;9.220;2022-07-30T06:47:07;7.73;;;6.20;;
17259;SDS011;8746;49.230;9.220;2022-07-30T06:49:34;6.90;;;5.43;;
17259;SDS011;8746;49.230;9.220;2022-07-30T06:52:00;6.73;;;6.13;;
17259;SDS011;8746;49.230;9.220;2022-07-30T06:54:25;7.93;;;5.97;;
17259;SDS011;8746;49.230;9.220;2022-07-30T06:56:51;5.90;;;5.37;;
17259;SDS011;8746;49.230;9.220;2022-07-30T06:59:16;7.00;;;5.87;;
17259;SDS011;8746;49.230;9.220;2022-07-30T07:01:42;8.07;;;6.00;;
17259;SDS011;8746;49.230;9.220;2022-07-30T07:04:08;6.60;;;5.53;;
17259;SDS011;8746;49.230;9.220;2022-07-30T07:06:33;5.60;;;5.03;;
17259;SDS011;8746;49.230;9.220;2022-07-30T07:08:59;7.50;;;5.20;;
17259;SDS011;8746;49.230;9.220;2022-07-30T07:11:24;5.23;;;4.67;;
17259;SDS011;8746;49.230;9.220;2022-07-30T07:13:50;5.37;;;4.73;;
17259;SDS011;8746;49.230;9.220;2022-07-30T07:16:15;7.23;;;4.90;;
17259;SDS011;8746;49.230;9.220;2022-07-30T07:18:45;5.93;;;4.90;;
17259;SDS011;8746;49.230;9.220;2022-07-30T07:21:12;6.05;;;4.40;;
17259;SDS011;8746;49.230;9.220;2022-07-30T07:23:38;6.38;;;4.50;;
17259;SDS011;8746;49.230;9.220;2022-07-30T07:26:03;7.10;;;4.90;;
17259;SDS011;8746;49.230;9.220;2022-07-30T07:28:29;6.95;;;4.65;;
17259;SDS011;8746;49.230;9.220;2022-07-30T07:30:54;6.07;;;5.03;;
17259;SDS011;8746;49.230;9.220;2022-07-30T07:33:19;8.05;;;5.22;;
17259;SDS011;8746;49.230;9.220;2022-07-30T07:35:45;5.10;;;4.45;;
17259;SDS011;8746;49.230;9.220;2022-07-30T07:38:10;5.15;;;4.25;;
17259;SDS011;8746;49.230;9.220;2022-07-30T07:40:36;4.72;;;4.13;;
17259;SDS011;8746;49.230;9.220;2022-07-30T07:43:01;6.65;;;4.60;;
17259;SDS011;8746;49.230;9.220;2022-07-30T07:45:27;5.35;;;4.15;;
17259;SDS011;8746;49.230;9.220;2022-07-30T07:47:53;4.53;;;4.00;;
17259;SDS011;8746;49.230;9.220;2022-07-30T07:50:19;5.93;;;4.25;;
17259;SDS011;8746;49.230;9.220;2022-07-30T07:52:44;5.72;;;4.80;;
17259;SDS011;8746;49.230;9.220;2022-07-30T07:55:10;5.95;;;4.38;;
17259;SDS011;8746;49.230;9.220;2022-07-30T07:57:39;5.20;;;4.70;;
17259;SDS011;8746;49.230;9.220;2022-07-30T08:00:09;5.82;;;4.13;;
17259;SDS011;8746;49.230;9.220;2022-07-30T08:02:36;6.93;;;4.10;;
17259;SDS011;8746;49.230;9.220;2022-07-30T08:05:05;5.10;;;3.90;;
17259;SDS011;8746;49.230;9.220;2022-07-30T08:07:31;4.80;;;4.07;;
17259;SDS011;8746;49.230;9.220;2022-07-30T08:09:57;8.48;;;4.18;;
17259;SDS011;8746;49.230;9.220;2022-07-30T08:12:22;5.35;;;4.30;;
17259;SDS011;8746;49.230;9.220;2022-07-30T08:14:48;7.00;;;3.92;;
17259;SDS011;8746;49.230;9.220;2022-07-30T08:17:14;4.55;;;4.10;;
17259;SDS011;8746;49.230;9.220;2022-07-30T08:19:40;5.45;;;3.97;;
17259;SDS011;8746;49.230;9.220;2022-07-30T08:22:05;5.25;;;4.30;;
17259;SDS011;8746;49.230;9.220;2022-07-30T08:24:31;6.75;;;4.25;;
17259;SDS011;8746;49.230;9.220;2022-07-30T08:26:56;6.70;;;4.25;;
17259;SDS011;8746;49.230;9.220;2022-07-30T08:29:22;4.90;;;4.50;;
17259;SDS011;8746;49.230;9.220;2022-07-30T08:31:47;5.93;;;4.22;;
17259;SDS011;8746;49.230;9.220;2022-07-30T08:34:13;7.13;;;4.95;;
17259;SDS011;8746;49.230;9.220;2022-07-30T08:36:39;5.00;;;4.50;;
17259;SDS011;8746;49.230;9.220;2022-07-30T08:39:05;5.70;;;4.20;;
17259;SDS011;8746;49.230;9.220;2022-07-30T08:41:30;9.38;;;4.70;;
17259;SDS011;8746;49.230;9.220;2022-07-30T08:43:56;7.53;;;4.97;;
17259;SDS011;8746;49.230;9.220;2022-07-30T08:46:24;5.40;;;4.30;;
17259;SDS011;8746;49.230;9.220;2022-07-30T08:48:53;6.13;;;3.75;;
17259;SDS011;8746;49.230;9.220;2022-07-30T08:51:19;4.72;;;4.28;;
17259;SDS011;8746;49.230;9.220;2022-07-30T08:53:46;5.57;;;3.97;;
17259;SDS011;8746;49.230;9.220;2022-07-30T08:56:12;5.28;;;3.80;;
17259;SDS011;8746;49.230;9.220;2022-07-30T08:58:38;6.20;;;3.60;;
17259;SDS011;8746;49.230;9.220;2022-07-30T09:01:03;6.03;;;3.58;;
17259;SDS011;8746;49.230;9.220;2022-07-30T09:03:30;4.63;;;3.28;;
17259;SDS011;8746;49.230;9.220;2022-07-30T09:05:56;3.42;;;3.13;;
17259;SDS011;8746;49.230;9.220;2022-07-30T09:08:22;6.50;;;3.42;;
17259;SDS011;8746;49.230;9.220;2022-07-30T09:10:47;3.90;;;3.50;;
17259;SDS011;8746;49.230;9.220;2022-07-30T09:13:21;5.88;;;3.75;;
17259;SDS011;8746;49.230;9.220;2022-07-30T09:16:01;5.93;;;3.75;;
17259;SDS011;8746;49.230;9.220;2022-07-30T09:18:31;4.40;;;3.25;;
17259;SDS011;8746;49.230;9.220;2022-07-30T09:21:00;4.10;;;3.70;;
17259;SDS011;8746;49.230;9.220;2022-07-30T09:23:26;4.10;;;3.70;;
17259;SDS011;8746;49.230;9.220;2022-07-30T09:25:51;6.05;;;3.80;;
17259;SDS011;8746;49.230;9.220;2022-07-30T09:28:26;4.65;;;3.58;;
17259;SDS011;8746;49.230;9.220;2022-07-30T09:30:54;6.55;;;3.80;;
17259;SDS011;8746;49.230;9.220;2022-07-30T09:33:30;6.95;;;3.97;;
17259;SDS011;8746;49.230;9.220;2022-07-30T09:36:04;4.95;;;3.55;;
17259;SDS011;8746;49.230;9.220;2022-07-30T09:41:13;4.72;;;3.55;;
17259;SDS011;8746;49.230;9.220;2022-07-30T09:43:40;6.25;;;3.40;;
17259;SDS011;8746;49.230;9.220;2022-07-30T09:46:07;5.00;;;3.40;;
17259;SDS011;8746;49.230;9.220;2022-07-30T09:48:32;6.30;;;2.90;;
17259;SDS011;8746;49.230;9.220;2022-07-30T09:50:57;5.18;;;3.17;;
17259;SDS011;8746;49.230;9.220;2022-07-30T09:53:23;3.90;;;2.70;;
17259;SDS011;8746;49.230;9.220;2022-07-30T09:55:49;4.43;;;2.42;;
17259;SDS011;8746;49.230;9.220;2022-07-30T09:58:15;4.50;;;3.42;;
17259;SDS011;8746;49.230;9.220;2022-07-30T10:00:40;5.68;;;3.20;;
17259;SDS011;8746;49.230;9.220;2022-07-30T10:03:19;4.78;;;3.58;;
17259;SDS011;8746;49.230;9.220;2022-07-30T10:05:55;4.68;;;3.58;;
17259;SDS011;8746;49.230;9.220;2022-07-30T10:08:44;4.13;;;3.60;;
17259;SDS011;8746;49.230;9.220;2022-07-30T10:11:17;3.47;;;3.17;;
17259;SDS011;8746;49.230;9.220;2022-07-30T10:13:48;4.00;;;3.45;;
17259;SDS011;8746;49.230;9.220;2022-07-30T10:16:16;4.78;;;3.25;;
17259;SDS011;8746;49.230;9.220;2022-07-30T10:18:42;6.38;;;3.20;;
17259;SDS011;8746;49.230;9.220;2022-07-30T10:21:08;4.32;;;3.28;;
17259;SDS011;8746;49.230;9.220;2022-07-30T10:23:34;5.53;;;3.05;;
17259;SDS011;8746;49.230;9.220;2022-07-30T10:26:00;3.75;;;3.40;;
17259;SDS011;8746;49.230;9.220;2022-07-30T10:28:26;5.18;;;3.38;;
17259;SDS011;8746;49.230;9.220;2022-07-30T10:30:53;5.30;;;3.40;;
17259;SDS011;8746;49.230;9.220;2022-07-30T10:33:26;5.10;;;3.60;;
17259;SDS011;8746;49.230;9.220;2022-07-30T10:35:54;3.88;;;3.35;;
17259;SDS011;8746;49.230;9.220;2022-07-30T10:38:21;3.85;;;3.38;;
17259;SDS011;8746;49.230;9.220;2022-07-30T10:40:57;4.40;;;3.85;;
17259;SDS011;8746;49.230;9.220;2022-07-30T10:46:11;4.13;;;3.83;;
17259;SDS011;8746;49.230;9.220;2022-07-30T10:48:48;4.60;;;3.20;;
17259;SDS011;8746;49.230;9.220;2022-07-30T10:51:14;3.65;;;3.20;;
17259;SDS011;8746;49.230;9.220;2022-07-30T10:53:41;3.45;;;3.15;;
17259;SDS011;8746;49.230;9.220;2022-07-30T11:04:22;2.65;;;2.45;;
17259;SDS011;8746;49.230;9.220;2022-07-30T11:06:49;4.03;;;2.60;;
17259;SDS011;8746;49.230;9.220;2022-07-30T11:09:34;4.70;;;2.40;;
17259;SDS011;8746;49.230;9.220;2022-07-30T11:12:04;2.88;;;2.60;;
17259;SDS011;8746;49.230;9.220;2022-07-30T11:17:11;4.30;;;2.30;;
17259;SDS011;8746;49.230;9.220;2022-07-30T11:22:33;3.25;;;2.60;;
17259;SDS011;8746;49.230;9.220;2022-07-30T11:27:53;3.67;;;2.45;;
17259;SDS011;8746;49.230;9.220;2022-07-30T11:32:48;4.10;;;2.80;;
17259;SDS011;8746;49.230;9.220;2022-07-30T11:37:55;4.88;;;2.50;;
17259;SDS011;8746;49.230;9.220;2022-07-30T11:40:35;4.40;;;2.25;;
17259;SDS011;8746;49.230;9.220;2022-07-30T11:45:55;3.53;;;2.40;;
17259;SDS011;8746;49.230;9.220;2022-07-30T11:48:30;4.82;;;2.30;;
17259;SDS011;8746;49.230;9.220;2022-07-30T11:50:56;2.58;;;2.25;;
17259;SDS011;8746;49.230;9.220;2022-07-30T11:53:21;2.63;;;2.00;;
17259;SDS011;8746;49.230;9.220;2022-07-30T11:55:55;2.47;;;2.28;;
17259;SDS011;8746;49.230;9.220;2022-07-30T11:58:25;3.15;;;2.20;;
17259;SDS011;8746;49.230;9.220;2022-07-30T12:00:50;3.92;;;2.40;;
17259;SDS011;8746;49.230;9.220;2022-07-30T12:03:19;3.15;;;2.50;;
17259;SDS011;8746;49.230;9.220;2022-07-30T12:05:46;4.13;;;2.30;;
17259;SDS011;8746;49.230;9.220;2022-07-30T12:08:12;3.17;;;2.10;;
17259;SDS011;8746;49.230;9.220;2022-07-30T12:10:38;5.25;;;2.35;;
17259;SDS011;8746;49.230;9.220;2022-07-30T12:13:08;6.70;;;2.60;;
17259;SDS011;8746;49.230;9.220;2022-07-30T12:15:37;2.78;;;2.00;;
17259;SDS011;8746;49.230;9.220;2022-07-30T12:18:07;4.32;;;2.17;;
17259;SDS011;8746;49.230;9.220;2022-07-30T12:20:36;3.58;;;2.28;;
17259;SDS011;8746;49.230;9.220;2022-07-30T12:23:02;2.67;;;2.10;;
17259;SDS011;8746;49.230;9.220;2022-07-30T12:25:36;5.45;;;2.33;;
17259;SDS011;8746;49.230;9.220;2022-07-30T12:28:03;2.33;;;2.10;;
17259;SDS011;8746;49.230;9.220;2022-07-30T12:30:28;3.30;;;2.03;;
17259;SDS011;8746;49.230;9.220;2022-07-30T12:32:54;3.80;;;2.38;;
17259;SDS011;8746;49.230;9.220;2022-07-30T12:35:19;3.53;;;1.90;;
17259;SDS011;8746;49.230;9.220;2022-07-30T12:38:00;2.33;;;2.05;;
17259;SDS011;8746;49.230;9.220;2022-07-30T12:40:27;3.90;;;2.22;;
17259;SDS011;8746;49.230;9.220;2022-07-30T12:42:53;2.05;;;1.85;;
17259;SDS011;8746;49.230;9.220;2022-07-30T12:45:31;3.70;;;2.00;;
17259;SDS011;8746;49.230;9.220;2022-07-30T12:47:57;2.28;;;2.17;;
17259;SDS011;8746;49.230;9.220;2022-07-30T12:50:23;3.70;;;2.45;;
17259;SDS011;8746;49.230;9.220;2022-07-30T12:52:51;3.17;;;2.20;;
17259;SDS011;8746;49.230;9.220;2022-07-30T12:55:19;3.47;;;2.30;;
17259;SDS011;8746;49.230;9.220;2022-07-30T12:57:56;2.30;;;2.10;;
17259;SDS011;8746;49.230;9.220;2022-07-30T13:00:30;3.88;;;2.20;;
17259;SDS011;8746;49.230;9.220;2022-07-30T13:03:18;3.00;;;2.10;;
17259;SDS011;8746;49.230;9.220;2022-07-30T13:05:54;2.95;;;2.28;;
17259;SDS011;8746;49.230;9.220;2022-07-30T13:11:16;3.38;;;2.25;;
17259;SDS011;8746;49.230;9.220;2022-07-30T13:13:44;2.85;;;2.20;;
17259;SDS011;8746;49.230;9.220;2022-07-30T13:16:10;2.25;;;2.05;;
17259;SDS011;8746;49.230;9.220;2022-07-30T13:18:36;2.30;;;2.08;;
17259;SDS011;8746;49.230;9.220;2022-07-30T13:21:03;2.15;;;1.92;;
17259;SDS011;8746;49.230;9.220;2022-07-30T13:23:32;2.30;;;2.10;;
17259;SDS011;8746;49.230;9.220;2022-07-30T13:25:58;2.85;;;2.20;;
17259;SDS011;8746;49.230;9.220;2022-07-30T13:28:24;2.65;;;2.10;;
17259;SDS011;8746;49.230;9.220;2022-07-30T13:30:49;3.60;;;1.90;;
17259;SDS011;8746;49.230;9.220;2022-07-30T13:33:15;2.65;;;1.95;;
17259;SDS011;8746;49.230;9.220;2022-07-30T13:35:41;3.35;;;1.98;;
17259;SDS011;8746;49.230;9.220;2022-07-30T13:38:07;3.55;;;2.03;;
17259;SDS011;8746;49.230;9.220;2022-07-30T13:40:35;2.17;;;1.98;;
17259;SDS011;8746;49.230;9.220;2022-07-30T13:43:00;3.05;;;1.80;;
17259;SDS011;8746;49.230;9.220;2022-07-30T13:45:26;2.25;;;1.80;;
17259;SDS011;8746;49.230;9.220;2022-07-30T13:47:52;2.65;;;1.80;;
17259;SDS011;8746;49.230;9.220;2022-07-30T13:50:18;2.20;;;1.80;;
17259;SDS011;8746;49.230;9.220;2022-07-30T13:52:44;3.08;;;1.90;;
17259;SDS011;8746;49.230;9.220;2022-07-30T13:55:10;2.42;;;1.75;;
17259;SDS011;8746;49.230;9.220;2022-07-30T13:57:35;3.05;;;1.80;;
17259;SDS011;8746;49.230;9.220;2022-07-30T14:00:02;4.05;;;1.73;;
17259;SDS011;8746;49.230;9.220;2022-07-30T14:02:29;2.20;;;2.00;;
17259;SDS011;8746;49.230;9.220;2022-07-30T14:04:55;2.08;;;1.98;;
17259;SDS011;8746;49.230;9.220;2022-07-30T14:07:21;3.75;;;2.00;;
17259;SDS011;8746;49.230;9.220;2022-07-30T14:09:46;3.35;;;2.00;;
17259;SDS011;8746;49.230;9.220;2022-07-30T14:12:11;4.80;;;1.95;;
17259;SDS011;8746;49.230;9.220;2022-07-30T14:14:37;4.03;;;2.20;;
17259;SDS011;8746;49.230;9.220;2022-07-30T14:17:02;2.22;;;1.95;;
17259;SDS011;8746;49.230;9.220;2022-07-30T14:19:27;3.05;;;1.90;;
17259;SDS011;8746;49.230;9.220;2022-07-30T14:21:53;2.65;;;1.90;;
17259;SDS011;8746;49.230;9.220;2022-07-30T14:24:19;2.20;;;2.00;;
17259;SDS011;8746;49.230;9.220;2022-07-30T14:26:45;2.70;;;1.98;;
17259;SDS011;8746;49.230;9.220;2022-07-30T14:29:11;2.95;;;2.00;;
17259;SDS011;8746;49.230;9.220;2022-07-30T14:31:37;3.10;;;1.92;;
17259;SDS011;8746;49.230;9.220;2022-07-30T14:34:04;2.13;;;1.90;;
17259;SDS011;8746;49.230;9.220;2022-07-30T14:36:30;2.30;;;2.08;;
17259;SDS011;8746;49.230;9.220;2022-07-30T14:38:56;2.38;;;1.80;;
17259;SDS011;8746;49.230;9.220;2022-07-30T14:41:24;2.13;;;1.95;;
17259;SDS011;8746;49.230;9.220;2022-07-30T14:43:50;5.68;;;1.90;;
17259;SDS011;8746;49.230;9.220;2022-07-30T14:46:15;2.03;;;1.83;;
17259;SDS011;8746;49.230;9.220;2022-07-30T14:48:41;2.78;;;1.70;;
17259;SDS011;8746;49.230;9.220;2022-07-30T14:51:07;1.98;;;1.70;;
17259;SDS011;8746;49.230;9.220;2022-07-30T14:53:32;2.47;;;1.70;;
17259;SDS011;8746;49.230;9.220;2022-07-30T14:55:57;2.25;;;1.80;;
17259;SDS011;8746;49.230;9.220;2022-07-30T14:58:23;5.50;;;2.08;;
17259;SDS011;8746;49.230;9.220;2022-07-30T15:00:48;3.80;;;2.05;;
17259;SDS011;8746;49.230;9.220;2022-07-30T15:03:15;5.65;;;2.17;;
17259;SDS011;8746;49.230;9.220;2022-07-30T15:05:40;4.75;;;2.10;;
17259;SDS011;8746;49.230;9.220;2022-07-30T15:08:05;4.40;;;1.70;;
17259;SDS011;8746;49.230;9.220;2022-07-30T15:10:31;2.75;;;1.90;;
17259;SDS011;8746;49.230;9.220;2022-07-30T15:12:57;1.88;;;1.50;;
17259;SDS011;8746;49.230;9.220;2022-07-30T15:15:22;2.58;;;1.80;;
17259;SDS011;8746;49.230;9.220;2022-07-30T15:17:48;2.78;;;1.90;;
17259;SDS011;8746;49.230;9.220;2022-07-30T15:20:13;2.92;;;1.98;;
17259;SDS011;8746;49.230;9.220;2022-07-30T15:22:39;2.10;;;1.90;;
17259;SDS011;8746;49.230;9.220;2022-07-30T15:25:04;3.78;;;2.00;;
17259;SDS011;8746;49.230;9.220;2022-07-30T15:27:30;2.83;;;2.00;;
17259;SDS011;8746;49.230;9.220;2022-07-30T15:29:56;2.08;;;1.88;;
17259;SDS011;8746;49.230;9.220;2022-07-30T15:32:22;1.85;;;1.60;;
17259;SDS011;8746;49.230;9.220;2022-07-30T15:34:47;3.38;;;1.65;;
17259;SDS011;8746;49.230;9.220;2022-07-30T15:37:13;3.38;;;1.88;;
17259;SDS011;8746;49.230;9.220;2022-07-30T15:39:39;1.95;;;1.85;;
17259;SDS011;8746;49.230;9.220;2022-07-30T15:42:04;3.95;;;1.98;;